Hauptseite
METAR-TAF:

METAR-TAF

Flughäfen :

Flughafen Augsburg

Augsburg, Deutschland

Breite: 48-26N, Länge: 010-56E, Höhe: 461 m

Beobachtung

Neuester Wetterbericht von vor 30 Minuten, um 02:50 UTC
Wind 5 kt aus Nord/Nordost
Temperatur -1°C
Luftfeuchtigkeit 93%
Luftdruck 1026 hPa
Sichtweite 10 km oder mehr

METAR: EDMA 170250Z AUTO 03005KT 9999 // NCD M01/M02 Q1026

Zeit: 04:20 (03:20 UTC)

Prognose

Neuester Wetterbericht von vor 10 Stunden und 20 Minuten, um 17:00 UTC
Gültige Prognose vom 16 um 18 UTC bis 17 um 03 UTC
Wind 7 kt aus Nordost
Sichtweite 10 km oder mehr
keine Wolken unter 1500 m und keine Kumulonimbus oder Gewitterwolken

TAF: EDMA 161700Z 1618/1703 05007KT CAVOK

Wetterbeobachtungen und Prognosen von mehr als 4000 Flughäfen (METAR und TAF Bericht).

Die verfügbaren Stationen werden durch gelbe und rote Markierungen auf der Karte dargestellt.

Führen Sie die Maus auf sie, um den Namen der Station zu sehen.

Darauf klicken, um die Beobachtung von Wetterbeobachtungen und Prognosen zu sehen.

Um die Karte zu ändern : klicken Sie auf den grünen Tasten mit einem schwarzen Kreuz Zum Vergrößern, auf den grünen Button mit einem Gedankenstrich zu verkleinern, oder auf die grünen Pfeile für benachbarte Karten.


METAR-TAF: